createdAt,value
2023-03-05T00:00:03.376Z,83.2
2023-03-05T00:03:03.316Z,83.2
2023-03-05T00:06:03.388Z,83.2
2023-03-05T00:09:03.458Z,83.2
2023-03-05T00:12:03.350Z,83.2
2023-03-05T00:15:03.350Z,83.2
2023-03-05T00:18:03.417Z,83.2
2023-03-05T00:21:03.429Z,83.2
2023-03-05T00:24:03.360Z,83.2
2023-03-05T00:27:03.339Z,83.2
2023-03-05T00:30:03.349Z,83.2
2023-03-05T00:33:03.372Z,85
2023-03-05T00:36:03.556Z,85
2023-03-05T00:39:03.395Z,85
2023-03-05T00:42:03.404Z,85
2023-03-05T00:45:03.366Z,85
2023-03-05T00:48:03.533Z,85
2023-03-05T00:51:03.500Z,85
2023-03-05T00:54:03.897Z,85
2023-03-05T00:57:03.342Z,85
2023-03-05T01:00:03.363Z,85.1
2023-03-05T01:03:03.358Z,85.1
2023-03-05T01:06:03.697Z,85.1
2023-03-05T01:09:03.397Z,85.1
2023-03-05T01:12:03.426Z,85.1
2023-03-05T01:15:03.438Z,85.1
2023-03-05T01:18:03.452Z,85.1
2023-03-05T01:21:03.419Z,85.1
2023-03-05T01:24:03.481Z,85.1
2023-03-05T01:27:08.682Z,84.9
2023-03-05T01:30:03.328Z,84.9
2023-03-05T01:33:03.460Z,84.9
2023-03-05T01:36:03.325Z,84.9
2023-03-05T01:39:03.360Z,84.9
2023-03-05T01:42:03.327Z,84.9
2023-03-05T01:45:04.263Z,85.1
2023-03-05T01:48:03.321Z,85.1
2023-03-05T01:51:03.335Z,85.1
2023-03-05T01:54:03.330Z,85.1
2023-03-05T01:57:03.329Z,85.1
2023-03-05T02:00:03.469Z,85.1
2023-03-05T02:03:03.293Z,85.1
2023-03-05T02:06:03.328Z,85.1
2023-03-05T02:09:03.650Z,85.1
2023-03-05T02:12:03.363Z,85.1
2023-03-05T02:15:03.383Z,85.1
2023-03-05T02:18:03.450Z,85.1
2023-03-05T02:21:03.369Z,85.1
2023-03-05T02:24:03.414Z,85.1
2023-03-05T02:27:03.515Z,85.1
2023-03-05T02:30:03.362Z,84.8
2023-03-05T02:33:03.289Z,84.8
2023-03-05T02:36:03.461Z,84.8
2023-03-05T02:39:03.490Z,84.8
2023-03-05T02:42:03.556Z,84.8
2023-03-05T02:45:03.722Z,84.8
2023-03-05T02:48:03.390Z,84.8
2023-03-05T02:51:03.448Z,84.8
2023-03-05T02:54:03.352Z,84.8
2023-03-05T02:57:03.291Z,84.8
2023-03-05T03:00:03.567Z,85.2
2023-03-05T03:03:03.457Z,85.2
2023-03-05T03:06:03.268Z,85.2
2023-03-05T03:09:03.289Z,85.2
2023-03-05T03:12:03.309Z,85.2
2023-03-05T03:15:03.654Z,85.2
2023-03-05T03:18:03.364Z,85.2
2023-03-05T03:21:03.345Z,85.2
2023-03-05T03:24:03.365Z,85.8
2023-03-05T03:27:03.319Z,85.8
2023-03-05T03:30:03.381Z,85.8
2023-03-05T03:33:03.312Z,85.8
2023-03-05T03:36:03.459Z,85.8
2023-03-05T03:39:03.285Z,85.8
2023-03-05T03:42:03.339Z,85.8
2023-03-05T03:45:03.314Z,85.8
2023-03-05T03:48:03.280Z,85.8
2023-03-05T03:51:03.310Z,85.8
2023-03-05T03:54:03.376Z,85.8
2023-03-05T03:57:03.303Z,87
2023-03-05T04:00:03.340Z,87
2023-03-05T04:03:03.283Z,87
2023-03-05T04:06:03.302Z,87
2023-03-05T04:09:03.296Z,87
2023-03-05T04:12:03.297Z,87
2023-03-05T04:15:03.330Z,87
2023-03-05T04:18:03.376Z,87
2023-03-05T04:21:03.341Z,88
2023-03-05T04:24:03.385Z,88
2023-03-05T04:27:03.332Z,88
2023-03-05T04:30:03.332Z,88
2023-03-05T04:33:03.314Z,88
2023-03-05T04:36:03.311Z,88
2023-03-05T04:39:03.266Z,88
2023-03-05T04:42:03.295Z,88
2023-03-05T04:45:03.285Z,88
2023-03-05T04:48:03.345Z,88.7
2023-03-05T04:51:03.366Z,88.7
2023-03-05T04:54:03.309Z,88.7
2023-03-05T04:57:03.299Z,88.7
2023-03-05T05:00:03.491Z,88.7
2023-03-05T05:03:03.538Z,88.7
2023-03-05T05:06:03.274Z,88.7
2023-03-05T05:09:03.284Z,88.7
2023-03-05T05:12:03.410Z,88.7
2023-03-05T05:15:03.298Z,88.7
2023-03-05T05:18:03.352Z,88.7
2023-03-05T05:21:03.409Z,88.7
2023-03-05T05:24:03.314Z,88.7
2023-03-05T05:27:03.372Z,88.7
2023-03-05T05:30:03.289Z,88.4
2023-03-05T05:33:03.345Z,88.4
2023-03-05T05:36:03.439Z,88.4
2023-03-05T05:39:03.380Z,88.4
2023-03-05T05:42:03.333Z,88.4
2023-03-05T05:45:03.385Z,88.4
2023-03-05T05:48:03.311Z,88.4
2023-03-05T05:51:03.332Z,88.4
2023-03-05T05:54:03.371Z,88.4
2023-03-05T05:57:03.294Z,88.4
2023-03-05T06:00:03.353Z,88.4
2023-03-05T06:03:03.541Z,88.4
2023-03-05T06:06:03.538Z,88.4
2023-03-05T06:09:03.346Z,88.4
2023-03-05T06:12:03.344Z,88.4
2023-03-05T06:15:03.393Z,88.4
2023-03-05T06:18:03.323Z,88.4
2023-03-05T06:21:03.373Z,88.4
2023-03-05T06:24:03.422Z,88.4
2023-03-05T06:27:03.426Z,88.4
2023-03-05T06:30:03.707Z,88.4
2023-03-05T06:33:03.444Z,88.4
2023-03-05T06:36:03.601Z,88.4
2023-03-05T06:39:03.592Z,88.4
2023-03-05T06:42:03.351Z,88.4
2023-03-05T06:45:03.426Z,88.4
2023-03-05T06:48:03.417Z,88.4
2023-03-05T06:51:03.346Z,88.4
2023-03-05T06:54:03.531Z,88.4
2023-03-05T06:57:03.398Z,88.4
2023-03-05T07:00:03.497Z,87.7
2023-03-05T07:03:03.375Z,87.7
2023-03-05T07:06:03.419Z,87.7
2023-03-05T07:09:03.321Z,87.7
2023-03-05T07:12:03.477Z,87.7
2023-03-05T07:15:03.395Z,87.7
2023-03-05T07:18:03.392Z,87.7
2023-03-05T07:21:03.398Z,87.7
2023-03-05T07:24:03.366Z,87.7
2023-03-05T07:27:03.351Z,87.7
2023-03-05T07:30:03.482Z,87.7
2023-03-05T07:33:03.387Z,87.7
2023-03-05T07:36:03.422Z,87.7
2023-03-05T07:39:03.490Z,87.7
2023-03-05T07:42:03.457Z,87.1
2023-03-05T07:45:03.558Z,87.1
2023-03-05T07:48:03.427Z,87.1
2023-03-05T07:51:03.378Z,87.1
2023-03-05T07:54:03.466Z,87.1
2023-03-05T07:57:03.413Z,87.1
2023-03-05T08:00:03.819Z,87.1
2023-03-05T08:03:03.397Z,87.1
2023-03-05T08:06:03.397Z,87.1
2023-03-05T08:09:03.395Z,87.1
2023-03-05T08:12:03.382Z,87.1
2023-03-05T08:15:03.472Z,87.1
2023-03-05T08:18:03.692Z,87.1
2023-03-05T08:21:03.431Z,87.1
2023-03-05T08:24:03.518Z,87.1
2023-03-05T08:27:03.405Z,87.1
2023-03-05T08:30:03.474Z,87.1
2023-03-05T08:33:03.372Z,87.1
2023-03-05T08:36:03.410Z,87.1
2023-03-05T08:39:03.432Z,85.8
2023-03-05T08:42:03.367Z,85.8
2023-03-05T08:45:03.623Z,85.8
2023-03-05T08:48:03.423Z,85.8
2023-03-05T08:51:03.515Z,85.8
2023-03-05T08:54:03.343Z,85.8
2023-03-05T08:57:03.571Z,85.8
2023-03-05T09:00:03.591Z,85.8
2023-03-05T09:03:03.641Z,85.8
2023-03-05T09:06:03.422Z,85.8
2023-03-05T09:09:03.392Z,85.8
2023-03-05T09:12:03.439Z,85.8
2023-03-05T09:15:03.421Z,87
2023-03-05T09:18:03.420Z,87
2023-03-05T09:21:03.453Z,87
2023-03-05T09:24:03.454Z,87
2023-03-05T09:27:03.411Z,87
2023-03-05T09:30:03.448Z,87
2023-03-05T09:33:03.409Z,89.2
2023-03-05T09:36:03.408Z,89.2
2023-03-05T09:39:03.408Z,89.2
2023-03-05T09:42:03.395Z,89.2
2023-03-05T09:45:03.371Z,89.2
2023-03-05T09:48:03.403Z,89.2
2023-03-05T09:51:03.521Z,89.2
2023-03-05T09:54:05.522Z,89.2
2023-03-05T09:57:03.409Z,88.4
2023-03-05T10:00:03.426Z,88.4
2023-03-05T10:03:03.602Z,88.4
2023-03-05T10:06:03.456Z,88.4
2023-03-05T10:09:03.334Z,88.4
2023-03-05T10:12:03.569Z,88.4
2023-03-05T10:15:03.361Z,88.4
2023-03-05T10:18:03.366Z,88.4
2023-03-05T10:21:03.420Z,85
2023-03-05T10:24:03.423Z,85
2023-03-05T10:27:03.665Z,85
2023-03-05T10:30:03.454Z,85
2023-03-05T10:33:03.394Z,85
2023-03-05T10:36:03.339Z,85
2023-03-05T10:39:03.369Z,85
2023-03-05T10:42:03.345Z,85
2023-03-05T10:45:03.378Z,85
2023-03-05T10:48:03.429Z,81.9
2023-03-05T10:51:03.383Z,81.9
2023-03-05T10:54:03.373Z,81.9
2023-03-05T10:57:03.386Z,81.9
2023-03-05T11:00:03.461Z,80.9
2023-03-05T11:03:03.501Z,80.9
2023-03-05T11:06:03.348Z,80.9
2023-03-05T11:09:03.423Z,80.9
2023-03-05T11:12:03.392Z,80.9
2023-03-05T11:15:03.409Z,80.9
2023-03-05T11:18:03.440Z,80.9
2023-03-05T11:21:03.376Z,80.9
2023-03-05T11:24:03.420Z,82.3
2023-03-05T11:27:03.453Z,82.3
2023-03-05T11:30:03.727Z,82.3
2023-03-05T11:33:03.415Z,82.3
2023-03-05T11:36:03.618Z,82.3
2023-03-05T11:39:03.437Z,82.3
2023-03-05T11:42:03.423Z,81.6
2023-03-05T11:45:03.497Z,81.6
2023-03-05T11:48:03.350Z,81.6
2023-03-05T11:51:03.472Z,81.6
2023-03-05T11:54:03.353Z,81.6
2023-03-05T11:57:03.418Z,79.4
2023-03-05T12:00:03.396Z,79.4
2023-03-05T12:03:03.490Z,79.4
2023-03-05T12:06:03.434Z,79.4
2023-03-05T12:09:03.562Z,79.4
2023-03-05T12:12:03.413Z,79.4
2023-03-05T12:15:03.391Z,76.2
2023-03-05T12:18:03.436Z,76.2
2023-03-05T12:21:03.471Z,76.2
2023-03-05T12:24:03.372Z,76.2
2023-03-05T12:27:03.378Z,76.2
2023-03-05T12:30:03.456Z,77.1
2023-03-05T12:33:03.397Z,77.1
2023-03-05T12:36:03.656Z,77.1
2023-03-05T12:39:03.565Z,77.1
2023-03-05T12:42:03.553Z,77.1
2023-03-05T12:45:03.431Z,77.1
2023-03-05T12:48:03.369Z,77.1
2023-03-05T12:51:03.446Z,77.1
2023-03-05T12:54:03.418Z,77.1
2023-03-05T12:57:03.494Z,79.1
2023-03-05T13:00:03.518Z,79.1
2023-03-05T13:03:03.510Z,79.1
2023-03-05T13:06:03.457Z,79.1
2023-03-05T13:09:03.609Z,79.1
2023-03-05T13:12:03.525Z,79.1
2023-03-05T13:15:03.529Z,79.1
2023-03-05T13:18:03.449Z,79.1
2023-03-05T13:21:03.412Z,79.1
2023-03-05T13:24:03.366Z,79.1
2023-03-05T13:27:03.478Z,79.1
2023-03-05T13:30:03.454Z,79.1
2023-03-05T13:33:03.410Z,79.1
2023-03-05T13:36:03.596Z,79.1
2023-03-05T13:39:03.756Z,79.1
2023-03-05T13:42:03.424Z,79.1
2023-03-05T13:45:03.445Z,79.1
2023-03-05T13:48:03.581Z,79.1
2023-03-05T13:51:03.371Z,79.1
2023-03-05T13:54:03.412Z,79.1
2023-03-05T13:57:03.372Z,81.3
2023-03-05T14:00:03.587Z,81.3
2023-03-05T14:03:03.641Z,81.3
2023-03-05T14:06:03.424Z,81.3
2023-03-05T14:09:03.448Z,81.3
2023-03-05T14:12:03.470Z,80.4
2023-03-05T14:15:03.638Z,80.4
2023-03-05T14:18:03.390Z,80.4
2023-03-05T14:21:03.513Z,80.4
2023-03-05T14:24:03.427Z,80.4
2023-03-05T14:27:03.401Z,80.4
2023-03-05T14:30:03.396Z,80.4
2023-03-05T14:33:03.413Z,80.4
2023-03-05T14:36:03.612Z,79.2
2023-03-05T14:39:03.466Z,79.2
2023-03-05T14:42:03.355Z,79.2
2023-03-05T14:45:03.359Z,79.2
2023-03-05T14:48:03.412Z,79.2
2023-03-05T14:51:03.425Z,76.9
2023-03-05T14:54:03.459Z,76.9
2023-03-05T14:57:03.479Z,76.9
2023-03-05T15:00:03.469Z,76.9
2023-03-05T15:03:03.542Z,76.9
2023-03-05T15:06:03.387Z,76.9
2023-03-05T15:09:03.423Z,76.9
2023-03-05T15:12:03.414Z,76.9
2023-03-05T15:15:04.124Z,74
2023-03-05T15:18:03.350Z,74
2023-03-05T15:21:03.342Z,74
2023-03-05T15:24:03.334Z,74
2023-03-05T15:27:03.463Z,74
2023-03-05T15:30:03.518Z,74
2023-03-05T15:33:03.354Z,73.8
2023-03-05T15:36:03.408Z,73.8
2023-03-05T15:39:03.419Z,73.8
2023-03-05T15:42:05.331Z,73.8
2023-03-05T15:45:03.400Z,73.8
2023-03-05T15:48:03.443Z,73.8
2023-03-05T15:51:03.355Z,73.8
2023-03-05T15:54:03.323Z,73.8
2023-03-05T15:57:03.441Z,74.2
2023-03-05T16:00:03.535Z,74.2
2023-03-05T16:03:03.560Z,74.2
2023-03-05T16:06:03.432Z,74.2
2023-03-05T16:09:03.397Z,74.2
2023-03-05T16:12:03.368Z,74.2
2023-03-05T16:15:03.415Z,74.2
2023-03-05T16:18:03.417Z,74.2
2023-03-05T16:21:03.330Z,74.2
2023-03-05T16:24:03.390Z,74.2
2023-03-05T16:27:03.394Z,74.2
2023-03-05T16:30:03.502Z,74.2
2023-03-05T16:33:03.518Z,74.2
2023-03-05T16:36:03.466Z,74.2
2023-03-05T16:39:03.361Z,73.7
2023-03-05T16:42:03.419Z,73.7
2023-03-05T16:45:03.391Z,73.7
2023-03-05T16:48:03.590Z,73.7
2023-03-05T16:51:03.420Z,73.7
2023-03-05T16:54:03.391Z,73.7
2023-03-05T16:57:03.568Z,73.7
2023-03-05T17:00:03.491Z,73.7
2023-03-05T17:03:03.371Z,73.7
2023-03-05T17:06:03.376Z,73.7
2023-03-05T17:09:03.352Z,73.7
2023-03-05T17:12:03.335Z,73.7
2023-03-05T17:15:03.424Z,73.7
2023-03-05T17:18:03.295Z,73.7
2023-03-05T17:21:03.307Z,73.7
2023-03-05T17:24:03.278Z,73.7
2023-03-05T17:27:03.377Z,73.7
2023-03-05T17:30:03.591Z,74.8
2023-03-05T17:33:03.411Z,74.8
2023-03-05T17:36:03.365Z,74.8
2023-03-05T17:39:03.384Z,74.8
2023-03-05T17:42:03.347Z,74.8
2023-03-05T17:45:03.423Z,74.8
2023-03-05T17:48:03.362Z,74.8
2023-03-05T17:51:03.428Z,74.8
2023-03-05T17:54:03.287Z,74.8
2023-03-05T17:57:03.281Z,74.8
2023-03-05T18:00:03.477Z,74.8
2023-03-05T18:03:03.370Z,74.8
2023-03-05T18:06:03.412Z,74.8
2023-03-05T18:09:03.406Z,74.8
2023-03-05T18:12:03.429Z,74.8
2023-03-05T18:15:03.353Z,74.8
2023-03-05T18:18:03.437Z,74.8
2023-03-05T18:21:03.353Z,75.9
2023-03-05T18:24:03.279Z,75.9
2023-03-05T18:27:03.328Z,75.9
2023-03-05T18:30:03.343Z,75.9
2023-03-05T18:33:03.373Z,75.9
2023-03-05T18:36:03.309Z,75.9
2023-03-05T18:39:03.385Z,75.9
2023-03-05T18:42:03.369Z,75.9
2023-03-05T18:45:03.377Z,75.9
2023-03-05T18:48:03.342Z,75.9
2023-03-05T18:51:04.554Z,75.9
2023-03-05T18:54:03.347Z,75.9
2023-03-05T18:57:03.358Z,76.8
2023-03-05T19:00:03.404Z,76.8
2023-03-05T19:03:03.329Z,76.8
2023-03-05T19:06:03.392Z,76.8
2023-03-05T19:09:03.355Z,76.8
2023-03-05T19:12:03.325Z,76.8
2023-03-05T19:15:03.340Z,76.8
2023-03-05T19:18:03.387Z,76.8
2023-03-05T19:21:03.394Z,76.8
2023-03-05T19:24:03.354Z,76.8
2023-03-05T19:27:03.445Z,76.8
2023-03-05T19:30:03.344Z,76.8
2023-03-05T19:33:03.326Z,76.8
2023-03-05T19:36:03.324Z,76.8
2023-03-05T19:39:03.347Z,76.8
2023-03-05T19:42:03.330Z,76.8
2023-03-05T19:45:03.330Z,76.8
2023-03-05T19:48:03.385Z,77.2
2023-03-05T19:51:03.369Z,77.2
2023-03-05T19:54:03.355Z,77.2
2023-03-05T19:57:03.359Z,77.2
2023-03-05T20:00:03.342Z,77.2
2023-03-05T20:03:03.346Z,77.2
2023-03-05T20:06:03.337Z,77.2
2023-03-05T20:09:03.394Z,77
2023-03-05T20:12:03.365Z,77
2023-03-05T20:15:03.312Z,77
2023-03-05T20:18:03.367Z,77
2023-03-05T20:21:03.337Z,77
2023-03-05T20:24:03.367Z,77
2023-03-05T20:27:03.308Z,77
2023-03-05T20:30:03.389Z,77
2023-03-05T20:33:03.352Z,77
2023-03-05T20:36:03.362Z,77
2023-03-05T20:39:03.342Z,77
2023-03-05T20:42:03.313Z,77
2023-03-05T20:45:03.329Z,77
2023-03-05T20:48:03.330Z,76.8
2023-03-05T20:51:03.350Z,76.8
2023-03-05T20:54:03.346Z,76.8
2023-03-05T20:57:03.432Z,76.8
2023-03-05T21:00:03.332Z,76.8
2023-03-05T21:03:03.379Z,76.8
2023-03-05T21:06:03.314Z,76.8
2023-03-05T21:09:03.344Z,76.8
2023-03-05T21:12:03.359Z,76.8
2023-03-05T21:15:03.332Z,76.8
2023-03-05T21:18:03.329Z,76.8
2023-03-05T21:21:03.373Z,76.8
2023-03-05T21:24:03.334Z,76.8
2023-03-05T21:27:03.297Z,76.8
2023-03-05T21:30:03.683Z,76.8
2023-03-05T21:33:03.284Z,77.3
2023-03-05T21:36:03.356Z,77.3
2023-03-05T21:39:03.323Z,77.3
2023-03-05T21:42:03.360Z,77.3
2023-03-05T21:45:03.529Z,77.3
2023-03-05T21:48:03.332Z,77.3
2023-03-05T21:51:03.471Z,77.3
2023-03-05T21:54:03.328Z,77.3
2023-03-05T21:57:03.547Z,77.3
2023-03-05T22:00:03.398Z,77.8
2023-03-05T22:03:03.337Z,77.8
2023-03-05T22:06:03.332Z,77.8
2023-03-05T22:09:03.315Z,77.8
2023-03-05T22:12:03.427Z,77.8
2023-03-05T22:15:03.314Z,77.8
2023-03-05T22:18:03.292Z,77.9
2023-03-05T22:21:03.316Z,77.9
2023-03-05T22:24:03.260Z,77.9
2023-03-05T22:27:03.399Z,77.9
2023-03-05T22:30:03.327Z,77.9
2023-03-05T22:33:03.308Z,78
2023-03-05T22:36:03.441Z,78
2023-03-05T22:39:03.338Z,78
2023-03-05T22:42:03.257Z,78
2023-03-05T22:45:03.322Z,78
2023-03-05T22:48:03.293Z,78
2023-03-05T22:51:03.387Z,78
2023-03-05T22:54:03.385Z,78
2023-03-05T22:57:03.315Z,78
2023-03-05T23:00:03.951Z,78
2023-03-05T23:03:03.517Z,78
2023-03-05T23:06:03.410Z,79.4
2023-03-05T23:09:03.405Z,79.4
2023-03-05T23:12:03.313Z,79.4
2023-03-05T23:15:03.340Z,79.4
2023-03-05T23:18:03.346Z,79.4
2023-03-05T23:21:03.363Z,79.4
2023-03-05T23:24:03.297Z,79.9
2023-03-05T23:27:03.424Z,79.9
2023-03-05T23:30:03.304Z,79.9
2023-03-05T23:33:03.323Z,79.9
2023-03-05T23:36:03.637Z,79.9
2023-03-05T23:39:03.354Z,79.9
2023-03-05T23:42:03.366Z,79.9
2023-03-05T23:45:03.368Z,79.9
2023-03-05T23:48:03.287Z,79.9
2023-03-05T23:51:03.346Z,79.9
2023-03-05T23:54:03.354Z,79.9
2023-03-05T23:57:03.345Z,79.9
